Time;durP1;ratioP1;P1;durP2;ratioP2;P2;SDS_P1;SDS_P2;PMS_P1;PMS_P2;Temp;Humidity;BMP_temperature;BMP_pressure;BME280_temperature;BME280_humidity;BME280_pressure;Samples;Min_cycle;Max_cycle;Signal;HPM_P1;HPM_P2
2023/11/16 00:01:01;;;;;;;2.35;1.73;;;;;;;;;;5069828;28;20092;-81
2023/11/16 00:03:28;;;;;;;3.28;1.85;;;;;;;;;;5035000;28;20037;-81
2023/11/16 00:05:55;;;;;;;4.13;1.70;;;;;;;;;;5039614;28;20530;-81
2023/11/16 00:08:24;;;;;;;3.83;1.73;;;;;;;;;;5077140;28;20479;-81
2023/11/16 00:10:54;;;;;;;4.20;1.42;;;;;;;;;;5031860;28;20056;-81
2023/11/16 00:13:24;;;;;;;4.90;1.73;;;;;;;;;;5052430;28;20048;-81
2023/11/16 00:15:52;;;;;;;4.70;1.63;;;;;;;;;;5038357;28;20448;-81
2023/11/16 00:18:23;;;;;;;3.47;1.63;;;;;;;;;;5051442;28;20048;-81
2023/11/16 00:20:50;;;;;;;4.05;1.38;;;;;;;;;;5025090;28;20063;-80
2023/11/16 00:23:17;;;;;;;3.35;1.35;;;;;;;;;;5026736;28;20048;-81
2023/11/16 00:25:46;;;;;;;2.58;1.85;;;;;;;;;;5045843;28;20055;-81
2023/11/16 00:28:14;;;;;;;5.18;1.90;;;;;;;;;;5054410;28;20044;-81
2023/11/16 00:30:44;;;;;;;4.20;1.60;;;;;;;;;;5033842;28;20052;-81
2023/11/16 00:33:11;;;;;;;2.08;1.55;;;;;;;;;;5032127;28;20048;-81
2023/11/16 00:35:40;;;;;;;6.13;1.60;;;;;;;;;;5035303;28;20048;-81
2023/11/16 00:38:08;;;;;;;3.67;1.52;;;;;;;;;;5032734;28;20056;-81
2023/11/16 00:40:35;;;;;;;1.88;1.20;;;;;;;;;;5033208;28;20045;-81
2023/11/16 00:43:06;;;;;;;2.20;1.10;;;;;;;;;;5031935;28;20068;-81
2023/11/16 00:45:37;;;;;;;1.85;1.30;;;;;;;;;;5016236;28;20045;-81
2023/11/16 00:48:09;;;;;;;1.85;1.20;;;;;;;;;;5028541;28;20061;-81
2023/11/16 00:50:36;;;;;;;4.35;1.92;;;;;;;;;;5014241;28;20046;-81
2023/11/16 00:53:06;;;;;;;1.80;1.40;;;;;;;;;;5014050;28;20057;-81
2023/11/16 00:55:33;;;;;;;2.40;1.30;;;;;;;;;;5026278;28;20053;-81
2023/11/16 00:58:04;;;;;;;1.75;1.50;;;;;;;;;;5015444;28;20053;-81
2023/11/16 01:00:35;;;;;;;2.13;1.13;;;;;;;;;;5021298;28;20049;-81
2023/11/16 01:03:06;;;;;;;1.88;1.10;;;;;;;;;;5006669;28;20552;-81
2023/11/16 01:05:39;;;;;;;9.23;1.98;;;;;;;;;;5031412;28;20537;-81
2023/11/16 01:08:09;;;;;;;2.63;1.80;;;;;;;;;;5023699;28;20054;-81
2023/11/16 01:10:37;;;;;;;6.97;2.55;;;;;;;;;;5027356;28;20525;-81
2023/11/16 01:13:07;;;;;;;3.30;1.48;;;;;;;;;;5034589;28;20076;-81
2023/11/16 01:15:38;;;;;;;1.20;1.10;;;;;;;;;;5012035;28;20056;-81
2023/11/16 01:18:12;;;;;;;2.05;1.27;;;;;;;;;;5026165;28;20041;-81
2023/11/16 01:20:39;;;;;;;2.22;1.00;;;;;;;;;;5028351;28;20413;-81
2023/11/16 01:23:12;;;;;;;5.80;1.48;;;;;;;;;;5009585;28;20060;-81
2023/11/16 01:25:40;;;;;;;1.33;1.10;;;;;;;;;;5025567;28;20122;-81
2023/11/16 01:28:09;;;;;;;2.25;0.98;;;;;;;;;;5001667;28;20683;-81
2023/11/16 01:30:40;;;;;;;3.22;1.00;;;;;;;;;;5026383;28;20061;-81
2023/11/16 01:33:11;;;;;;;2.67;0.98;;;;;;;;;;5009354;28;20129;-81
2023/11/16 01:35:41;;;;;;;5.05;1.02;;;;;;;;;;4993267;28;20052;-81
2023/11/16 01:38:15;;;;;;;1.67;1.38;;;;;;;;;;5004066;28;20556;-81
2023/11/16 01:40:42;;;;;;;1.30;1.20;;;;;;;;;;5021014;28;20056;-80
2023/11/16 01:43:12;;;;;;;1.13;1.00;;;;;;;;;;5035931;28;20045;-80
2023/11/16 01:45:41;;;;;;;1.52;1.33;;;;;;;;;;5029146;28;20049;-80
2023/11/16 01:48:09;;;;;;;1.23;1.10;;;;;;;;;;5023289;28;20064;-81
2023/11/16 01:50:39;;;;;;;1.88;1.00;;;;;;;;;;5049162;28;20049;-81
2023/11/16 01:53:10;;;;;;;1.92;1.45;;;;;;;;;;5026029;28;20520;-81
2023/11/16 01:55:42;;;;;;;2.28;0.88;;;;;;;;;;5046327;28;20059;-81
2023/11/16 01:58:12;;;;;;;2.03;1.10;;;;;;;;;;5028477;28;20413;-81
2023/11/16 02:00:43;;;;;;;12.93;2.28;;;;;;;;;;5028999;28;20044;-81
2023/11/16 02:03:11;;;;;;;0.93;0.73;;;;;;;;;;5040607;28;20074;-81
2023/11/16 02:05:41;;;;;;;1.77;1.23;;;;;;;;;;5031575;28;20053;-81
2023/11/16 02:08:11;;;;;;;1.48;0.90;;;;;;;;;;5041998;28;20060;-80
2023/11/16 02:10:42;;;;;;;1.17;0.75;;;;;;;;;;5031291;28;20053;-81
2023/11/16 02:13:18;;;;;;;2.08;1.52;;;;;;;;;;5025537;28;20045;-81
2023/11/16 02:15:55;;;;;;;3.92;0.90;;;;;;;;;;5027452;28;20061;-80
2023/11/16 02:18:24;;;;;;;1.30;1.10;;;;;;;;;;5034878;28;20428;-81
2023/11/16 02:20:53;;;;;;;1.67;1.00;;;;;;;;;;5017819;28;20505;-81
2023/11/16 02:23:22;;;;;;;1.67;1.10;;;;;;;;;;5052255;28;20052;-81
2023/11/16 02:25:50;;;;;;;2.42;1.52;;;;;;;;;;5027423;28;20053;-80
2023/11/16 02:28:26;;;;;;;2.67;1.10;;;;;;;;;;5041941;28;20053;-80
2023/11/16 02:30:53;;;;;;;1.25;0.95;;;;;;;;;;5048645;28;20056;-81
2023/11/16 02:33:20;;;;;;;5.13;0.90;;;;;;;;;;5044285;28;20440;-81
2023/11/16 02:35:52;;;;;;;1.60;1.30;;;;;;;;;;5044342;23;20073;-79
2023/11/16 02:38:20;;;;;;;4.05;1.60;;;;;;;;;;4996591;28;20057;-79
2023/11/16 02:40:51;;;;;;;2.22;1.38;;;;;;;;;;5028089;28;20065;-79
2023/11/16 02:43:19;;;;;;;1.38;1.15;;;;;;;;;;4999030;28;20056;-79
2023/11/16 02:45:48;;;;;;;1.27;1.10;;;;;;;;;;5013285;28;20406;-79
2023/11/16 02:48:15;;;;;;;2.58;1.38;;;;;;;;;;4998099;28;20061;-81
2023/11/16 02:50:44;;;;;;;2.38;1.48;;;;;;;;;;5012267;28;20060;-81
2023/11/16 02:53:11;;;;;;;2.13;1.20;;;;;;;;;;5007073;28;20054;-81
2023/11/16 02:55:39;;;;;;;2.70;1.52;;;;;;;;;;5004092;28;20441;-81
2023/11/16 02:58:08;;;;;;;1.83;1.38;;;;;;;;;;5015757;28;20049;-81
2023/11/16 03:00:35;;;;;;;1.80;1.30;;;;;;;;;;4994779;28;20057;-81
2023/11/16 03:03:05;;;;;;;2.00;1.25;;;;;;;;;;5038246;28;20046;-81
2023/11/16 03:05:33;;;;;;;1.45;1.25;;;;;;;;;;5024749;28;20060;-81
2023/11/16 03:08:00;;;;;;;3.55;1.42;;;;;;;;;;4997709;28;20042;-81
2023/11/16 03:10:28;;;;;;;2.42;1.70;;;;;;;;;;5019038;28;20125;-81
2023/11/16 03:12:56;;;;;;;2.13;1.35;;;;;;;;;;4998892;28;20490;-81
2023/11/16 03:15:31;;;;;;;1.90;1.17;;;;;;;;;;5013180;28;20049;-81
2023/11/16 03:18:00;;;;;;;2.67;1.23;;;;;;;;;;5012978;28;20066;-81
2023/11/16 03:20:27;;;;;;;8.65;2.55;;;;;;;;;;5014745;28;20052;-81
2023/11/16 03:22:55;;;;;;;4.70;2.67;;;;;;;;;;5003909;28;20502;-81
2023/11/16 03:25:22;;;;;;;8.35;3.30;;;;;;;;;;5022166;28;20061;-81
2023/11/16 03:27:55;;;;;;;3.35;3.05;;;;;;;;;;4999569;28;20073;-81
2023/11/16 03:30:22;;;;;;;3.70;2.35;;;;;;;;;;5014550;28;20058;-81
2023/11/16 03:32:50;;;;;;;8.27;1.73;;;;;;;;;;5027790;28;20049;-81
2023/11/16 03:35:17;;;;;;;2.95;1.80;;;;;;;;;;5032613;28;20501;-81
2023/11/16 03:37:47;;;;;;;3.20;2.03;;;;;;;;;;5017134;28;20534;-81
2023/11/16 03:40:13;;;;;;;1.80;1.45;;;;;;;;;;5017972;28;20107;-81
2023/11/16 03:42:42;;;;;;;2.67;1.10;;;;;;;;;;5009967;28;20046;-80
2023/11/16 03:45:11;;;;;;;1.90;1.42;;;;;;;;;;5025375;28;20049;-81
2023/11/16 03:47:43;;;;;;;3.80;1.48;;;;;;;;;;5016691;28;20401;-82
2023/11/16 03:50:13;;;;;;;2.13;1.52;;;;;;;;;;5012984;28;20057;-81
2023/11/16 03:52:40;;;;;;;1.45;0.98;;;;;;;;;;5026540;28;20053;-81
2023/11/16 03:55:09;;;;;;;3.05;1.50;;;;;;;;;;5009503;28;20045;-81
2023/11/16 03:57:39;;;;;;;3.63;1.10;;;;;;;;;;5013288;28;20122;-81
2023/11/16 04:00:10;;;;;;;1.40;1.23;;;;;;;;;;5018868;28;20053;-81
2023/11/16 04:02:41;;;;;;;2.10;1.23;;;;;;;;;;5020549;28;20045;-81
2023/11/16 04:05:11;;;;;;;2.53;1.77;;;;;;;;;;5025697;28;20041;-82
2023/11/16 04:07:42;;;;;;;6.32;2.33;;;;;;;;;;5021199;28;20057;-81
2023/11/16 04:10:12;;;;;;;4.15;1.63;;;;;;;;;;5013751;28;20045;-81
2023/11/16 04:12:42;;;;;;;2.15;1.60;;;;;;;;;;5039193;28;20021;-81
2023/11/16 04:15:14;;;;;;;5.47;1.63;;;;;;;;;;5018954;28;20068;-82
2023/11/16 04:17:44;;;;;;;2.00;1.30;;;;;;;;;;5023447;28;20045;-82
2023/11/16 04:20:16;;;;;;;2.47;1.52;;;;;;;;;;5037080;28;20060;-81
2023/11/16 04:22:44;;;;;;;2.33;1.92;;;;;;;;;;5006628;28;20061;-81
2023/11/16 04:25:19;;;;;;;3.33;1.45;;;;;;;;;;5031185;28;20042;-80
2023/11/16 04:27:47;;;;;;;2.55;1.90;;;;;;;;;;5001071;28;20046;-81
2023/11/16 04:30:16;;;;;;;2.88;2.22;;;;;;;;;;5025996;28;20417;-80
2023/11/16 04:32:45;;;;;;;8.55;2.90;;;;;;;;;;5008891;28;20061;-81
2023/11/16 04:35:13;;;;;;;3.50;1.77;;;;;;;;;;5025899;28;20084;-81
2023/11/16 04:37:46;;;;;;;5.05;4.15;;;;;;;;;;5029740;28;20050;-81
2023/11/16 04:40:16;;;;;;;5.57;4.35;;;;;;;;;;5028259;28;20062;-81
2023/11/16 04:42:47;;;;;;;8.10;7.28;;;;;;;;;;4986421;28;20056;-81
2023/11/16 04:45:15;;;;;;;21.83;19.50;;;;;;;;;;5014310;28;20052;-81
2023/11/16 04:47:46;;;;;;;7.50;6.07;;;;;;;;;;5026991;28;20120;-81
2023/11/16 04:50:16;;;;;;;7.40;5.90;;;;;;;;;;5034821;28;20459;-81
2023/11/16 04:52:45;;;;;;;6.05;5.55;;;;;;;;;;5035252;28;20064;-81
2023/11/16 04:55:12;;;;;;;5.75;5.15;;;;;;;;;;5011005;28;20053;-81
2023/11/16 04:57:39;;;;;;;4.20;3.72;;;;;;;;;;5018507;28;20045;-81
2023/11/16 05:00:13;;;;;;;3.88;3.17;;;;;;;;;;5018873;28;20049;-80
2023/11/16 05:02:46;;;;;;;4.07;2.72;;;;;;;;;;5015301;28;20060;-81
2023/11/16 05:05:16;;;;;;;2.65;1.90;;;;;;;;;;5015095;28;20054;-81
2023/11/16 05:07:50;;;;;;;6.88;2.55;;;;;;;;;;4999288;28;20077;-81
2023/11/16 05:10:18;;;;;;;4.43;2.35;;;;;;;;;;5019438;28;20505;-81
2023/11/16 05:12:48;;;;;;;6.38;2.00;;;;;;;;;;5010773;28;20053;-81
2023/11/16 05:15:16;;;;;;;2.55;2.03;;;;;;;;;;5010559;28;20046;-81
2023/11/16 05:17:44;;;;;;;3.17;2.17;;;;;;;;;;5009850;28;20049;-81
2023/11/16 05:20:12;;;;;;;4.35;2.88;;;;;;;;;;5028335;28;20394;-81
2023/11/16 05:22:39;;;;;;;3.05;2.70;;;;;;;;;;5018819;28;20064;-80
2023/11/16 05:25:10;;;;;;;4.75;2.22;;;;;;;;;;5021128;28;20038;-80
2023/11/16 05:27:38;;;;;;;2.85;1.83;;;;;;;;;;5028592;28;20057;-80
2023/11/16 05:30:08;;;;;;;3.70;2.50;;;;;;;;;;5039231;28;20045;-81
2023/11/16 05:32:35;;;;;;;2.58;2.03;;;;;;;;;;5013467;28;20068;-80
2023/11/16 05:35:03;;;;;;;2.95;2.13;;;;;;;;;;5028205;28;20049;-80
2023/11/16 05:37:30;;;;;;;3.78;2.10;;;;;;;;;;5021764;28;20058;-80
2023/11/16 05:40:03;;;;;;;5.15;2.65;;;;;;;;;;5037287;28;20049;-81
2023/11/16 05:42:32;;;;;;;2.13;1.65;;;;;;;;;;5010386;28;20053;-80
2023/11/16 05:44:59;;;;;;;6.07;1.90;;;;;;;;;;5028121;28;20050;-81
2023/11/16 05:47:26;;;;;;;7.60;2.35;;;;;;;;;;5024636;28;20054;-81
2023/11/16 05:49:58;;;;;;;3.30;2.75;;;;;;;;;;5022335;28;20049;-81
2023/11/16 05:52:27;;;;;;;4.38;2.72;;;;;;;;;;5009732;28;20060;-81
2023/11/16 05:54:55;;;;;;;2.10;1.50;;;;;;;;;;5007694;28;20054;-81
2023/11/16 05:57:25;;;;;;;4.32;2.83;;;;;;;;;;5009438;28;20144;-81
2023/11/16 05:59:56;;;;;;;4.28;2.03;;;;;;;;;;5022197;28;20413;-81
2023/11/16 06:02:24;;;;;;;2.58;2.22;;;;;;;;;;4996753;28;20058;-81
2023/11/16 06:04:52;;;;;;;10.23;2.30;;;;;;;;;;5021187;28;20045;-80
2023/11/16 06:07:21;;;;;;;4.07;2.55;;;;;;;;;;5007006;28;20050;-80
2023/11/16 06:09:48;;;;;;;3.00;2.45;;;;;;;;;;5036384;28;20048;-80
2023/11/16 06:12:18;;;;;;;5.38;2.72;;;;;;;;;;5021334;28;20042;-81
2023/11/16 06:14:56;;;;;;;3.42;2.38;;;;;;;;;;5020913;28;20041;-81
2023/11/16 06:17:27;;;;;;;3.30;2.10;;;;;;;;;;5008665;28;20056;-81
2023/11/16 06:19:54;;;;;;;3.30;1.80;;;;;;;;;;5019453;28;20049;-81
2023/11/16 06:22:21;;;;;;;2.58;2.15;;;;;;;;;;5029079;28;20037;-81
2023/11/16 06:24:51;;;;;;;4.25;2.53;;;;;;;;;;5019854;28;20082;-80
2023/11/16 06:27:21;;;;;;;3.97;2.05;;;;;;;;;;5039923;28;20045;-80
2023/11/16 06:29:51;;;;;;;6.07;2.42;;;;;;;;;;5048718;28;20041;-80
2023/11/16 06:32:18;;;;;;;3.90;2.38;;;;;;;;;;5001209;28;20061;-81
2023/11/16 06:34:49;;;;;;;5.43;2.38;;;;;;;;;;5013799;28;20121;-81
2023/11/16 06:37:16;;;;;;;5.13;2.67;;;;;;;;;;5006118;28;20042;-81
2023/11/16 06:39:43;;;;;;;4.03;2.10;;;;;;;;;;5015568;28;20046;-81
2023/11/16 06:42:11;;;;;;;4.38;2.88;;;;;;;;;;4998172;28;20065;-81
2023/11/16 06:44:39;;;;;;;4.05;3.15;;;;;;;;;;5038725;28;20721;-82
2023/11/16 06:47:09;;;;;;;3.50;2.53;;;;;;;;;;5010644;28;20057;-81
2023/11/16 07:34:12;;;;;;;4.22;3.42;;;;;;;;;;5367191;23;20065;-82
2023/11/16 07:36:39;;;;;;;9.27;5.00;;;;;;;;;;5028964;28;20048;-81
2023/11/16 08:29:39;;;;;;;5.40;3.63;;;;;;;;;;5009855;28;20054;-81
2023/11/16 08:32:27;;;;;;;6.40;3.50;;;;;;;;;;5030681;28;20049;-81
2023/11/16 10:21:05;;;;;;;7.25;3.55;;;;;;;;;;2729064;22;20319;31
2023/11/16 10:31:46;;;;;;;5.32;3.80;;;;;;;;;;4868742;29;20056;-83
2023/11/16 12:10:39;;;;;;;5.70;2.67;;;;;;;;;;4965462;28;20038;-85
2023/11/16 12:13:07;;;;;;;3.00;1.75;;;;;;;;;;4988390;28;20439;-85
2023/11/16 12:15:36;;;;;;;3.83;2.67;;;;;;;;;;4972533;28;20057;-85
2023/11/16 12:18:06;;;;;;;3.70;2.20;;;;;;;;;;4986753;28;20058;-85
2023/11/16 12:20:36;;;;;;;4.22;2.55;;;;;;;;;;4972368;28;20560;-85
2023/11/16 13:55:36;;;;;;;2.95;1.83;;;;;;;;;;4944862;28;20050;-84
2023/11/16 13:58:04;;;;;;;3.38;3.03;;;;;;;;;;4950851;28;20042;-84
2023/11/16 14:00:32;;;;;;;2.70;2.10;;;;;;;;;;4950929;28;20047;-84
2023/11/16 14:03:24;;;;;;;2.30;2.08;;;;;;;;;;4930813;29;20556;-84
2023/11/16 17:57:35;;;;;;;2.17;1.92;;;;;;;;;;5001117;28;20056;-85
2023/11/16 18:00:04;;;;;;;2.58;1.75;;;;;;;;;;4977390;28;20676;-84
2023/11/16 18:02:33;;;;;;;2.42;1.77;;;;;;;;;;4995523;28;20605;-84
2023/11/16 18:05:00;;;;;;;3.45;2.30;;;;;;;;;;4985378;28;20050;-84
2023/11/16 18:07:29;;;;;;;13.07;9.63;;;;;;;;;;5000260;28;20072;-85
2023/11/16 18:09:56;;;;;;;9.63;8.32;;;;;;;;;;4982385;28;20057;-85
2023/11/16 18:12:24;;;;;;;3.22;2.55;;;;;;;;;;5001956;28;20500;-84
2023/11/16 18:14:57;;;;;;;2.22;1.67;;;;;;;;;;4986427;28;20723;-84
2023/11/16 18:17:25;;;;;;;4.07;1.40;;;;;;;;;;4991415;28;20056;-84
2023/11/16 18:19:52;;;;;;;2.20;2.00;;;;;;;;;;4999958;28;20041;-84
2023/11/16 18:22:19;;;;;;;1.67;1.20;;;;;;;;;;4998462;28;20475;-84
2023/11/16 18:24:47;;;;;;;1.80;1.50;;;;;;;;;;4981987;28;20524;-84
2023/11/16 18:27:15;;;;;;;4.13;2.47;;;;;;;;;;4990900;28;20042;-85
2023/11/16 18:29:42;;;;;;;3.50;2.83;;;;;;;;;;4986180;28;20042;-85
2023/11/16 18:32:12;;;;;;;4.75;3.13;;;;;;;;;;4991207;28;20042;-86
2023/11/16 18:34:41;;;;;;;7.05;6.57;;;;;;;;;;4980120;28;20057;-85
2023/11/16 18:37:09;;;;;;;5.72;5.20;;;;;;;;;;4994807;28;20058;-85
2023/11/16 18:39:37;;;;;;;4.35;3.65;;;;;;;;;;4984072;28;20050;-85
2023/11/16 18:42:04;;;;;;;4.72;2.55;;;;;;;;;;4976107;28;20061;-85
2023/11/16 18:44:33;;;;;;;3.85;3.55;;;;;;;;;;4996582;28;20042;-85
2023/11/16 18:47:01;;;;;;;1.98;1.30;;;;;;;;;;4969461;28;20564;-85
2023/11/16 18:49:30;;;;;;;1.92;0.98;;;;;;;;;;4980411;28;20051;-85
2023/11/16 18:51:58;;;;;;;1.38;0.90;;;;;;;;;;4993825;28;20545;-85
2023/11/16 18:54:26;;;;;;;2.25;1.10;;;;;;;;;;4970424;28;20894;-85
2023/11/16 18:56:55;;;;;;;1.33;0.95;;;;;;;;;;4994334;28;20054;-85
2023/11/16 18:59:23;;;;;;;3.05;0.95;;;;;;;;;;4979711;28;20592;-85
2023/11/16 19:01:52;;;;;;;1.38;1.17;;;;;;;;;;4973481;28;20038;-85
2023/11/16 19:04:20;;;;;;;1.90;1.13;;;;;;;;;;4979133;28;20049;-86
2023/11/16 19:06:50;;;;;;;2.10;1.10;;;;;;;;;;4999492;28;20054;-85
2023/11/16 19:09:20;;;;;;;1.90;0.82;;;;;;;;;;4990180;28;20046;-85
2023/11/16 19:11:48;;;;;;;1.30;1.00;;;;;;;;;;4975480;28;20058;-85
2023/11/16 19:14:16;;;;;;;1.48;1.02;;;;;;;;;;4997969;28;20056;-85
2023/11/16 19:16:50;;;;;;;3.30;1.48;;;;;;;;;;4992522;28;20053;-85
2023/11/16 19:20:21;;;;;;;;;;;;;;;;;;;;;
2023/11/16 19:23:23;;;;;;;1.13;0.73;;;;;;;;;;4915934;28;20519;-86
2023/11/16 19:34:59;;;;;;;2.85;1.58;;;;;;;;;;4858391;28;20047;-85
2023/11/16 19:38:51;;;;;;;;;;;;;;;;;;;;;
2023/11/16 19:41:57;;;;;;;1.90;1.60;;;;;;;;;;4901648;29;20531;-85
2023/11/16 19:44:33;;;;;;;2.30;1.52;;;;;;;;;;4964058;28;20057;-86
2023/11/16 19:47:20;;;;;;;3.20;1.63;;;;;;;;;;4971754;28;20053;-85
2023/11/16 19:50:01;;;;;;;2.83;1.83;;;;;;;;;;4986898;28;20060;-85
2023/11/16 19:52:31;;;;;;;2.78;2.05;;;;;;;;;;4990055;28;20388;-85
2023/11/16 19:54:59;;;;;;;2.38;1.80;;;;;;;;;;4974002;28;20061;-84
2023/11/16 19:57:30;;;;;;;2.92;1.92;;;;;;;;;;4991631;28;20049;-85
2023/11/16 19:59:57;;;;;;;2.47;1.75;;;;;;;;;;4987541;28;20132;-85
2023/11/16 20:02:27;;;;;;;1.92;1.45;;;;;;;;;;4989791;28;20053;-84
2023/11/16 20:04:54;;;;;;;2.17;1.45;;;;;;;;;;4982659;28;20057;-85
2023/11/16 20:07:27;;;;;;;2.47;1.70;;;;;;;;;;4989969;28;20050;-85
2023/11/16 20:09:55;;;;;;;3.00;1.93;;;;;;;;;;4992577;28;20061;-84
2023/11/16 20:12:23;;;;;;;2.50;2.03;;;;;;;;;;4989772;28;20050;-84
2023/11/16 20:14:55;;;;;;;1.63;1.27;;;;;;;;;;5000087;28;20053;-85
2023/11/16 20:17:24;;;;;;;2.13;1.58;;;;;;;;;;4992170;28;20054;-84
2023/11/16 20:19:52;;;;;;;4.10;1.10;;;;;;;;;;4971661;28;20061;-85
2023/11/16 20:22:20;;;;;;;3.55;1.63;;;;;;;;;;4979749;28;20049;-85
2023/11/16 20:24:47;;;;;;;1.75;1.35;;;;;;;;;;4996170;28;20045;-85
2023/11/16 20:27:15;;;;;;;4.47;1.83;;;;;;;;;;4993719;28;20054;-84
2023/11/16 20:29:50;;;;;;;1.77;1.55;;;;;;;;;;4985685;28;20053;-85
2023/11/16 20:32:29;;;;;;;1.83;1.42;;;;;;;;;;4980657;28;20418;-85
2023/11/16 20:34:57;;;;;;;1.73;1.02;;;;;;;;;;4997500;23;20052;-81
2023/11/16 20:37:25;;;;;;;1.60;1.10;;;;;;;;;;5012607;28;20054;-81
2023/11/16 20:39:52;;;;;;;1.17;1.08;;;;;;;;;;5032024;28;20061;-81
2023/11/16 20:42:19;;;;;;;2.80;2.60;;;;;;;;;;5002410;28;20053;-81
2023/11/16 20:44:47;;;;;;;1.80;1.17;;;;;;;;;;5036091;28;20057;-81
2023/11/16 20:47:14;;;;;;;1.38;1.20;;;;;;;;;;5014037;28;20080;-81
2023/11/16 20:49:43;;;;;;;1.45;1.27;;;;;;;;;;5018967;28;20053;-80
2023/11/16 20:52:10;;;;;;;1.55;1.33;;;;;;;;;;5022769;28;20052;-80
2023/11/16 20:54:39;;;;;;;2.20;1.20;;;;;;;;;;5005039;28;20076;-80
2023/11/16 20:57:06;;;;;;;2.33;0.90;;;;;;;;;;5003867;28;20054;-80
2023/11/16 20:59:38;;;;;;;1.15;0.98;;;;;;;;;;5007491;28;20413;-80
2023/11/16 21:02:05;;;;;;;1.38;1.20;;;;;;;;;;5004434;28;20532;-80
2023/11/16 21:04:33;;;;;;;1.52;1.10;;;;;;;;;;5018457;28;20418;-80
2023/11/16 21:07:02;;;;;;;1.08;0.98;;;;;;;;;;5020051;28;20045;-80
2023/11/16 21:09:30;;;;;;;1.88;1.00;;;;;;;;;;5021114;28;20068;-80
2023/11/16 21:11:57;;;;;;;1.02;0.80;;;;;;;;;;5038670;28;20429;-81
2023/11/16 21:14:24;;;;;;;1.20;1.10;;;;;;;;;;5032772;28;20041;-80
2023/11/16 21:16:52;;;;;;;1.48;1.00;;;;;;;;;;5003246;28;20053;-80
2023/11/16 21:19:20;;;;;;;1.58;0.90;;;;;;;;;;5002174;28;20046;-80
2023/11/16 21:21:47;;;;;;;1.45;1.35;;;;;;;;;;5034586;28;20046;-81
2023/11/16 21:24:16;;;;;;;1.70;0.98;;;;;;;;;;5002340;28;20049;-81
2023/11/16 21:26:43;;;;;;;2.03;1.35;;;;;;;;;;5002814;28;20050;-81
2023/11/16 21:29:11;;;;;;;1.35;1.10;;;;;;;;;;5017131;28;20049;-81
2023/11/16 21:31:39;;;;;;;1.50;1.13;;;;;;;;;;5014473;28;20045;-81
2023/11/16 21:34:06;;;;;;;1.35;0.82;;;;;;;;;;5001842;28;20060;-81
2023/11/16 21:36:36;;;;;;;1.40;1.30;;;;;;;;;;5005173;28;20049;-81
2023/11/16 21:39:06;;;;;;;2.92;2.25;;;;;;;;;;5034509;28;20061;-81
2023/11/16 21:41:35;;;;;;;2.42;1.25;;;;;;;;;;5037053;28;20048;-81
2023/11/16 21:44:02;;;;;;;1.75;1.30;;;;;;;;;;5019306;28;20080;-81
2023/11/16 21:46:30;;;;;;;1.10;1.00;;;;;;;;;;5013960;28;20485;-81
2023/11/16 21:48:58;;;;;;;1.05;0.90;;;;;;;;;;5015954;28;20046;-81
2023/11/16 21:51:25;;;;;;;3.08;1.08;;;;;;;;;;5020056;28;20053;-81
2023/11/16 21:53:53;;;;;;;1.30;1.00;;;;;;;;;;5036703;28;20409;-81
2023/11/16 21:56:22;;;;;;;1.58;1.42;;;;;;;;;;5001343;28;20061;-81
2023/11/16 21:58:51;;;;;;;1.23;1.02;;;;;;;;;;5018709;28;20052;-81
2023/11/16 22:01:20;;;;;;;1.27;1.15;;;;;;;;;;5017938;28;20045;-81
2023/11/16 22:03:50;;;;;;;2.40;1.05;;;;;;;;;;5019229;28;20045;-81
2023/11/16 22:06:17;;;;;;;1.10;1.00;;;;;;;;;;5002210;28;20536;-81
2023/11/16 22:08:45;;;;;;;2.10;1.38;;;;;;;;;;5003684;28;20041;-81
2023/11/16 22:11:12;;;;;;;1.90;0.90;;;;;;;;;;5014595;28;20783;-81
2023/11/16 22:13:40;;;;;;;1.13;1.00;;;;;;;;;;5018232;28;20045;-81
2023/11/16 22:16:13;;;;;;;1.30;0.95;;;;;;;;;;5000863;28;20060;-81
2023/11/16 22:18:40;;;;;;;2.33;1.25;;;;;;;;;;5017524;28;20053;-81
2023/11/16 22:21:08;;;;;;;1.33;1.23;;;;;;;;;;5001197;28;20057;-81
2023/11/16 22:23:36;;;;;;;1.88;1.27;;;;;;;;;;5001838;28;20548;-81
2023/11/16 22:26:04;;;;;;;4.18;1.30;;;;;;;;;;5016680;28;20041;-81
2023/11/16 22:28:31;;;;;;;2.33;1.10;;;;;;;;;;5016695;28;20412;-81
2023/11/16 22:30:58;;;;;;;1.27;1.10;;;;;;;;;;5035860;28;20064;-81
2023/11/16 22:33:27;;;;;;;1.83;1.15;;;;;;;;;;5001508;28;20045;-81
2023/11/16 22:35:54;;;;;;;3.22;1.35;;;;;;;;;;5020497;28;20056;-81
2023/11/16 22:38:22;;;;;;;2.50;0.98;;;;;;;;;;5000711;28;20057;-81
2023/11/16 22:40:49;;;;;;;1.17;1.08;;;;;;;;;;5001975;28;20093;-81
2023/11/16 22:43:17;;;;;;;2.25;1.10;;;;;;;;;;5000821;28;20072;-81
2023/11/16 22:45:44;;;;;;;1.60;0.80;;;;;;;;;;5017208;28;20071;-81
2023/11/16 22:48:11;;;;;;;1.70;0.70;;;;;;;;;;5001933;28;20595;-82
2023/11/16 22:50:41;;;;;;;2.42;1.17;;;;;;;;;;5000482;28;20489;-81
2023/11/16 22:53:08;;;;;;;0.95;0.77;;;;;;;;;;5018042;28;20064;-81
2023/11/16 22:55:36;;;;;;;1.23;0.95;;;;;;;;;;5000379;28;20497;-81
2023/11/16 22:58:05;;;;;;;4.65;1.13;;;;;;;;;;5001473;28;20053;-81
2023/11/16 23:00:46;;;;;;;1.60;1.02;;;;;;;;;;5000781;28;20513;-81
2023/11/16 23:03:13;;;;;;;1.40;0.75;;;;;;;;;;5031109;28;20060;-81
2023/11/16 23:05:42;;;;;;;2.90;1.00;;;;;;;;;;4997847;28;20513;-81
2023/11/16 23:08:10;;;;;;;1.67;1.10;;;;;;;;;;4999515;28;20049;-81
2023/11/16 23:10:39;;;;;;;1.98;1.15;;;;;;;;;;5012450;28;20060;-81
2023/11/16 23:13:09;;;;;;;1.85;1.73;;;;;;;;;;5000986;28;20049;-81
2023/11/16 23:15:38;;;;;;;1.88;1.25;;;;;;;;;;5017886;28;20052;-81
2023/11/16 23:18:07;;;;;;;1.52;1.10;;;;;;;;;;5020305;28;20416;-81
2023/11/16 23:20:36;;;;;;;1.10;0.90;;;;;;;;;;5001310;28;20045;-81
2023/11/16 23:23:05;;;;;;;2.05;1.45;;;;;;;;;;5017395;28;20061;-81
2023/11/16 23:25:35;;;;;;;2.17;1.10;;;;;;;;;;5018917;28;20058;-81
2023/11/16 23:28:02;;;;;;;1.63;1.20;;;;;;;;;;5006200;28;20057;-82
2023/11/16 23:30:29;;;;;;;2.03;1.27;;;;;;;;;;5035142;28;20048;-81
2023/11/16 23:32:57;;;;;;;0.80;0.63;;;;;;;;;;5000685;28;20056;-81
2023/11/16 23:35:25;;;;;;;1.13;0.90;;;;;;;;;;4998480;28;20045;-81
2023/11/16 23:37:52;;;;;;;1.42;1.00;;;;;;;;;;5014102;28;20057;-81
2023/11/16 23:40:22;;;;;;;1.45;1.20;;;;;;;;;;5017326;28;20042;-81
2023/11/16 23:42:50;;;;;;;1.83;1.42;;;;;;;;;;5035765;28;20052;-81
2023/11/16 23:45:18;;;;;;;2.42;1.30;;;;;;;;;;5000664;28;20049;-81
2023/11/16 23:47:47;;;;;;;1.77;1.00;;;;;;;;;;5003137;28;20076;-81
2023/11/16 23:50:14;;;;;;;1.60;1.17;;;;;;;;;;5005773;28;20393;-81
2023/11/16 23:52:42;;;;;;;1.38;1.08;;;;;;;;;;5022121;28;20034;-81
2023/11/16 23:55:09;;;;;;;1.92;1.27;;;;;;;;;;5021296;28;20056;-81
2023/11/16 23:57:39;;;;;;;4.05;1.23;;;;;;;;;;5022410;28;20508;-81
